Winnipeg Forks, Manitoba

3:37 AM CDT on August 01, 2015 (GMT -0500)
University of Winnipeg | | Change Station
CLOSE
Current Station
Personal Weather Station
Location: Winnipeg, MB
Elevation: 780 ft
Nearby Weather Stations

Elev 780 ft 49.89 °N, 97.15 °W | Updated 1 second ago

Clear
Clear
62.3 °F
Feels Like 62.3 °F
N
5.0
Wind Variable Wind from WSW
Gusts 7.0 mph

Today is forecast to be nearly the same temperature as yesterday.

Today
High -- | Low -- °F
--% Chance of Precip.
Yesterday
High -- | Low -- °F
Precip. -- in
5:58 AM 9:10 PM
Full, 99% visible
Pressure 29.92 in
Visibility 15.0 miles
Clouds Clear
Dew Point 54 °F
Humidity 75%
Rainfall 0.00 in
Snow Depth Not available.
UV 0 out of 12
Pollen Not available.
Air Quality Not available.
Flu Activity Not available.
METAR CYWG 010800Z 26009KT 15SM SKC 14/12 A2992 RMK SLP132 DENSITY ALT 800FT

More Conditions Fewer Conditions

Pressure 29.92 in
Visibility 15.0 miles
Clouds Clear
Dew Point 54 °F
Humidity 75%
Rainfall 0.00 in
Snow Depth Not available.
UV 0 out of 12
Pollen Not available.
Air Quality Not available.
Flu Activity Not available.
METAR CYWG 010800Z 26009KT 15SM SKC 14/12 A2992 RMK SLP132 DENSITY ALT 800FT

More Conditions Fewer Conditions

10-Day Weather Forecast

×

Almanac

Astronomy

Aug. 01, 2015 Rise Set
Actual Time
Civil Twilight
Nautical Twilight
Astronomical Twilight
Moon
Length of Visible Light
Length of Day
Tomorrow will be .
, % of the Moon is Illuminated

Today's Extremes

Country Highs Country Lows

Community

WunderPhotos

Upload Photos

1,842,905 photos uploaded!

WunderBlogs® & News

Nearby

Air Quality

  Air Quality AQ Index Pollutant
Not available.

Snow Depth

Station Depth Elevation

Earthquake Activity

City Distance Mag. Time & Date
Minimum magnitude displayed is 2.5.

Coastal Water Temperatures

Place Temperature

Stations

Nearby Weather Stations

Station Location Temp. Windchill Dew Point Humidity Wind Precip. Elev Updated Type